Time;durP1;ratioP1;P1;durP2;ratioP2;P2;SDS_P1;SDS_P2;PMS_P1;PMS_P2;Temp;Humidity;BMP_temperature;BMP_pressure;BME280_temperature;BME280_humidity;BME280_pressure;Samples;Min_cycle;Max_cycle;Signal;HPM_P1;HPM_P2
2023/01/20 00:00:07;;;;;;;5.93;1.97;;;;;;;16.92;42.52;98370.03;5072544;28;20195;-54
2023/01/20 00:02:36;;;;;;;8.77;1.87;;;;;;;17.10;42.04;98351.38;5071943;28;20560;-54
2023/01/20 00:05:02;;;;;;;2.97;1.87;;;;;;;17.01;43.16;98341.25;5071812;28;20191;-54
2023/01/20 00:07:29;;;;;;;6.50;1.53;;;;;;;16.93;43.69;98360.53;5071618;28;20191;-53
2023/01/20 00:09:56;;;;;;;4.57;2.00;;;;;;;16.89;43.25;98384.88;5071748;28;20573;-54
2023/01/20 00:12:23;;;;;;;4.63;1.93;;;;;;;16.93;42.77;98387.31;5072136;28;20194;-54
2023/01/20 00:14:50;;;;;;;4.30;1.80;;;;;;;16.95;42.59;98380.34;5071494;28;20191;-54
2023/01/20 00:17:16;;;;;;;3.10;1.77;;;;;;;16.95;42.46;98353.53;5071663;28;20188;-54
2023/01/20 00:19:44;;;;;;;5.00;2.07;;;;;;;16.94;42.77;98349.25;5071849;28;20618;-54
2023/01/20 00:22:11;;;;;;;5.97;2.20;;;;;;;16.84;43.09;98374.59;5071498;28;20187;-54
2023/01/20 00:24:38;;;;;;;4.93;1.85;;;;;;;16.87;42.81;98377.09;5070324;28;20440;-54
2023/01/20 00:27:06;;;;;;;4.40;1.80;;;;;;;16.90;43.33;98400.38;5071540;28;20187;-54
2023/01/20 00:29:33;;;;;;;4.77;2.00;;;;;;;16.89;43.58;98416.00;5071722;28;20191;-53
2023/01/20 00:32:01;;;;;;;3.37;1.60;;;;;;;16.91;43.30;98409.03;5071444;28;20710;-54
2023/01/20 00:34:28;;;;;;;5.83;1.90;;;;;;;16.95;42.96;98411.47;5070730;28;20683;-56
2023/01/20 00:36:56;;;;;;;3.83;1.93;;;;;;;16.98;42.87;98411.41;5071608;28;20192;-55
2023/01/20 00:39:23;;;;;;;3.60;1.87;;;;;;;16.87;43.17;98403.06;5071902;28;20248;-55
2023/01/20 00:41:49;;;;;;;2.47;1.50;;;;;;;16.92;43.07;98389.97;5071876;28;20199;-55
2023/01/20 00:44:16;;;;;;;4.27;1.90;;;;;;;16.94;42.91;98394.22;5075192;28;20214;-57
2023/01/20 00:46:43;;;;;;;5.00;1.87;;;;;;;16.93;42.77;98394.25;5071906;28;20184;-56
2023/01/20 00:49:10;;;;;;;3.23;1.90;;;;;;;16.88;42.86;98404.75;5069069;28;20199;-56
2023/01/20 00:51:37;;;;;;;5.33;2.00;;;;;;;16.92;43.53;98410.72;5062134;28;20611;-56
2023/01/20 00:54:05;;;;;;;2.37;1.43;;;;;;;16.80;44.30;98417.09;5059906;28;20200;-56
2023/01/20 00:56:32;;;;;;;3.03;1.73;;;;;;;16.75;44.87;98408.56;5093981;28;20205;-55
2023/01/20 00:58:59;;;;;;;8.33;1.93;;;;;;;16.68;45.19;98409.59;5073652;28;20192;-56
2023/01/20 01:01:25;;;;;;;5.10;1.80;;;;;;;16.62;43.30;98438.28;5066715;28;20199;-55
2023/01/20 01:03:53;;;;;;;3.60;2.00;;;;;;;16.66;43.04;98441.66;5066590;28;20606;-56
2023/01/20 01:06:22;;;;;;;5.47;1.80;;;;;;;16.84;42.36;98447.22;5065330;28;20282;-55
2023/01/20 01:08:48;;;;;;;6.83;1.70;;;;;;;16.94;41.76;98434.88;5075184;28;20198;-55
2023/01/20 01:11:17;;;;;;;5.63;1.90;;;;;;;17.07;41.83;98436.25;5072118;28;20645;-55
2023/01/20 01:13:43;;;;;;;5.20;1.70;;;;;;;17.06;41.77;98444.94;5065316;28;20191;-55
2023/01/20 01:16:12;;;;;;;3.90;1.60;;;;;;;17.09;41.82;98471.66;5073516;28;20198;-55
2023/01/20 01:18:39;;;;;;;3.43;1.90;;;;;;;17.13;41.95;98480.22;5074859;28;20261;-55
2023/01/20 01:21:07;;;;;;;3.73;1.97;;;;;;;17.15;41.49;98474.97;5075362;28;20192;-55
2023/01/20 01:23:34;;;;;;;3.77;1.87;;;;;;;17.15;41.33;98480.16;5074859;28;20195;-55
2023/01/20 01:26:01;;;;;;;3.60;1.87;;;;;;;16.77;41.76;98411.97;5074824;28;20191;-55
2023/01/20 01:28:29;;;;;;;8.33;1.80;;;;;;;17.19;41.66;98493.06;5074607;28;20191;-55
2023/01/20 01:31:00;;;;;;;3.73;1.90;;;;;;;17.14;41.95;98487.09;5074555;28;20215;-55
2023/01/20 01:33:27;;;;;;;2.80;1.90;;;;;;;17.15;41.90;98462.88;5074499;28;20663;-55
2023/01/20 01:35:58;;;;;;;3.43;1.83;;;;;;;17.14;41.62;98494.06;5074769;28;20198;-55
2023/01/20 01:38:25;;;;;;;5.33;1.40;;;;;;;17.14;41.49;98502.66;5074755;28;20192;-55
2023/01/20 01:40:54;;;;;;;1.80;1.60;;;;;;;17.17;41.68;98510.38;5074542;28;20231;-55
2023/01/20 01:43:23;;;;;;;4.83;1.70;;;;;;;17.11;41.34;98513.16;5074839;28;20214;-55
2023/01/20 01:45:52;;;;;;;2.43;1.70;;;;;;;17.28;41.49;98530.91;5074580;28;20180;-55
2023/01/20 01:48:22;;;;;;;2.67;1.70;;;;;;;17.20;41.60;98462.72;5075121;28;20200;-55
2023/01/20 01:50:53;;;;;;;3.57;1.40;;;;;;;17.30;40.57;98474.59;5074303;28;20306;-55
2023/01/20 01:53:21;;;;;;;4.33;1.90;;;;;;;17.28;42.06;98471.19;5074117;28;20190;-55
2023/01/20 01:55:51;;;;;;;2.17;1.60;;;;;;;17.15;42.79;98482.78;5074559;28;20193;-55
2023/01/20 01:58:23;;;;;;;3.20;1.80;;;;;;;17.15;42.70;98480.16;5073426;28;21011;-55
2023/01/20 02:00:50;;;;;;;4.43;1.57;;;;;;;17.03;43.42;98464.03;5074249;28;20445;-55
2023/01/20 02:03:18;;;;;;;3.23;1.30;;;;;;;16.49;45.27;98400.56;5074271;28;20199;-55
2023/01/20 02:05:47;;;;;;;1.27;0.80;;;;;;;16.19;48.65;98485.09;5074217;28;20188;-55
2023/01/20 02:08:14;;;;;;;2.97;1.05;;;;;;;15.71;51.03;98461.09;5073852;28;20438;-55
2023/01/20 02:10:41;;;;;;;1.00;0.77;;;;;;;15.52;52.26;98459.75;5073967;28;20215;-55
2023/01/20 02:13:08;;;;;;;1.30;0.80;;;;;;;15.27;53.73;98463.69;5073899;28;20217;-55
2023/01/20 02:15:42;;;;;;;2.57;1.10;;;;;;;14.97;56.08;98488.38;5073604;28;20194;-55
2023/01/20 02:18:36;;;;;;;2.57;0.60;;;;;;;14.73;58.18;98458.63;5074448;28;20195;-55
2023/01/20 02:21:41;;;;;;;2.10;0.70;;;;;;;14.57;59.59;98477.00;5073833;28;20199;-55
2023/01/20 02:24:41;;;;;;;0.30;0.30;;;;;;;14.39;60.84;98478.16;5073803;28;20209;-55
2023/01/20 02:27:12;;;;;;;1.17;0.70;;;;;;;14.25;61.49;98477.47;5073659;28;20498;-55
2023/01/20 02:30:17;;;;;;;2.73;0.77;;;;;;;14.18;61.44;98463.78;5073348;28;20193;-55
2023/01/20 02:32:56;;;;;;;1.30;1.07;;;;;;;14.06;62.31;98470.88;5076087;28;20590;-55
2023/01/20 02:35:29;;;;;;;0.67;0.67;;;;;;;14.08;63.09;98482.88;5073571;28;20670;-55
2023/01/20 02:38:10;;;;;;;2.53;0.83;;;;;;;14.05;64.11;98463.97;5073582;28;20248;-55
2023/01/20 02:40:48;;;;;;;4.23;0.63;;;;;;;13.92;66.51;98489.13;5073347;28;20277;-55
2023/01/20 02:43:20;;;;;;;0.70;0.70;;;;;;;13.87;68.02;98490.06;5084428;28;20440;-56
2023/01/20 02:45:56;;;;;;;0.80;0.60;;;;;;;13.85;68.20;98476.28;5089839;28;20203;-56
2023/01/20 02:48:30;;;;;;;1.40;0.90;;;;;;;13.72;69.49;98472.19;5073436;28;20247;-56
2023/01/20 02:51:06;;;;;;;0.90;0.90;;;;;;;13.60;70.34;98481.78;5072241;28;21576;-56
2023/01/20 02:53:40;;;;;;;1.47;1.07;;;;;;;13.66;70.70;98503.22;5072456;28;20266;-56
2023/01/20 02:56:09;;;;;;;1.30;0.73;;;;;;;13.44;71.88;98446.72;5073291;28;20192;-55
2023/01/20 02:58:41;;;;;;;1.60;0.80;;;;;;;13.47;72.05;98469.03;5072783;28;20194;-55
2023/01/20 03:01:13;;;;;;;1.13;0.90;;;;;;;13.37;72.08;98490.66;5072799;28;20203;-57
2023/01/20 03:03:45;;;;;;;1.97;1.27;;;;;;;13.32;72.70;98510.50;5072633;28;20195;-56
2023/01/20 03:06:18;;;;;;;1.63;1.43;;;;;;;13.28;73.86;98483.88;5071961;28;20260;-55
2023/01/20 03:08:48;;;;;;;0.83;0.83;;;;;;;13.01;75.29;98497.88;5072862;28;20660;-56
2023/01/20 03:11:16;;;;;;;2.13;1.10;;;;;;;12.97;75.74;98490.16;5072951;28;20225;-55
2023/01/20 03:13:47;;;;;;;2.00;1.40;;;;;;;12.77;77.64;98507.56;5072772;28;20187;-60
2023/01/20 03:16:17;;;;;;;3.50;1.17;;;;;;;12.73;78.52;98485.25;5073319;28;20567;-55
2023/01/20 03:18:46;;;;;;;1.10;1.00;;;;;;;12.76;78.95;98495.53;5073072;28;20245;-55
2023/01/20 03:21:13;;;;;;;1.57;1.10;;;;;;;12.84;78.58;98493.72;5072953;28;20199;-55
2023/01/20 03:23:42;;;;;;;1.90;1.27;;;;;;;12.95;77.94;98477.31;5072691;28;20194;-55
2023/01/20 03:26:12;;;;;;;1.90;1.20;;;;;;;12.84;78.85;98476.56;5072610;28;20188;-55
2023/01/20 03:28:40;;;;;;;3.17;1.10;;;;;;;12.76;79.44;98475.78;5072777;28;20194;-56
2023/01/20 03:31:13;;;;;;;3.05;1.45;;;;;;;12.71;80.01;98490.41;5071899;28;20441;-55
2023/01/20 03:33:40;;;;;;;3.43;1.60;;;;;;;12.65;79.66;98469.84;5072882;28;20189;-55
2023/01/20 03:36:09;;;;;;;3.53;1.40;;;;;;;12.83;79.46;98484.28;5072533;28;20203;-55
2023/01/20 03:38:36;;;;;;;4.93;1.57;;;;;;;12.60;80.72;98484.50;5072224;28;20652;-55
2023/01/20 03:41:10;;;;;;;3.43;1.50;;;;;;;12.59;80.39;98489.66;5072805;28;20232;-55
2023/01/20 03:43:43;;;;;;;5.47;1.45;;;;;;;12.54;80.94;98486.25;5071158;28;20437;-56
2023/01/20 03:46:16;;;;;;;1.40;1.30;;;;;;;12.58;80.47;98462.19;5072376;28;20191;-56
2023/01/20 03:48:49;;;;;;;2.77;1.23;;;;;;;12.47;81.08;98464.81;5072349;28;20238;-55
2023/01/20 03:51:24;;;;;;;1.23;0.83;;;;;;;12.48;81.03;98461.41;5072295;28;20216;-56
2023/01/20 03:53:55;;;;;;;3.00;1.30;;;;;;;12.47;80.38;98462.25;5072646;28;20194;-55
2023/01/20 03:56:26;;;;;;;1.20;1.10;;;;;;;12.50;80.29;98444.19;5072881;28;20192;-56
2023/01/20 03:58:55;;;;;;;1.53;1.07;;;;;;;12.44;79.90;98465.72;5072490;28;20195;-55
2023/01/20 04:01:35;;;;;;;1.17;0.80;;;;;;;12.37;79.79;98433.16;5071936;28;20188;-55
2023/01/20 04:04:03;;;;;;;0.90;0.90;;;;;;;12.10;80.62;98414.47;5072001;28;20187;-55
2023/01/20 04:06:34;;;;;;;1.40;0.90;;;;;;;12.25;80.48;98433.22;5071772;28;20191;-55
2023/01/20 04:09:05;;;;;;;3.80;1.20;;;;;;;12.18;80.50;98456.47;5072678;28;20187;-55
2023/01/20 04:11:31;;;;;;;5.73;1.73;;;;;;;11.86;80.53;98397.50;5071750;28;20223;-55
2023/01/20 04:13:58;;;;;;;1.70;1.40;;;;;;;12.26;80.37;98467.56;5071978;28;20189;-55
2023/01/20 04:16:26;;;;;;;6.53;1.23;;;;;;;12.15;80.25;98439.34;5071786;28;20188;-55
2023/01/20 04:18:54;;;;;;;4.20;1.83;;;;;;;12.30;80.06;98446.97;5071621;28;20184;-55
2023/01/20 04:21:28;;;;;;;2.33;1.23;;;;;;;12.32;80.39;98452.94;5072116;28;20192;-55
2023/01/20 04:24:02;;;;;;;3.47;2.00;;;;;;;12.37;79.83;98446.03;5071619;28;20722;-56
2023/01/20 04:26:29;;;;;;;2.67;1.40;;;;;;;12.50;79.90;98422.75;5072003;28;20194;-55
2023/01/20 04:28:56;;;;;;;4.10;1.63;;;;;;;12.53;78.89;98433.88;5071814;28;20187;-55
2023/01/20 04:31:23;;;;;;;12.80;2.33;;;;;;;12.63;79.13;98411.47;5070602;28;20449;-56
2023/01/20 04:33:50;;;;;;;3.27;1.87;;;;;;;12.67;78.57;98390.81;5071341;28;20438;-56
2023/01/20 04:36:16;;;;;;;5.97;2.20;;;;;;;12.61;77.98;98400.34;5072038;28;20187;-55
2023/01/20 04:38:43;;;;;;;4.33;2.07;;;;;;;12.55;77.92;98379.78;5071542;28;20191;-56
2023/01/20 04:41:12;;;;;;;5.10;2.13;;;;;;;12.55;78.11;98395.22;5071579;28;20280;-56
2023/01/20 04:43:39;;;;;;;3.97;2.13;;;;;;;12.46;77.97;98391.00;5071517;28;20265;-55
2023/01/20 04:46:05;;;;;;;3.90;1.80;;;;;;;12.39;78.45;98405.66;5071434;28;20195;-55
2023/01/20 04:48:32;;;;;;;3.17;2.77;;;;;;;12.34;78.41;98407.41;5071192;28;20238;-55
2023/01/20 04:51:03;;;;;;;4.40;3.00;;;;;;;12.34;78.96;98410.00;5071219;28;20187;-54
2023/01/20 04:53:30;;;;;;;7.63;3.20;;;;;;;12.40;78.50;98419.41;5071842;28;20229;-55
2023/01/20 04:55:56;;;;;;;7.43;2.97;;;;;;;12.43;78.36;98415.09;5071632;28;20198;-55
2023/01/20 04:58:25;;;;;;;8.17;3.70;;;;;;;12.50;78.51;98386.69;5071199;28;20193;-55
2023/01/20 05:00:51;;;;;;;7.03;2.63;;;;;;;12.53;77.40;98378.91;5071054;28;20652;-55
2023/01/20 05:03:18;;;;;;;10.83;2.63;;;;;;;12.56;77.15;98373.72;5071862;28;20198;-55
2023/01/20 05:05:52;;;;;;;8.50;3.47;;;;;;;12.60;77.08;98353.09;5071275;28;20202;-55
2023/01/20 05:08:19;;;;;;;9.87;3.50;;;;;;;12.63;76.11;98334.16;5071600;28;20568;-55
2023/01/20 05:10:45;;;;;;;11.30;3.53;;;;;;;12.60;76.11;98347.94;5071238;28;20651;-56
2023/01/20 05:13:12;;;;;;;6.77;4.00;;;;;;;12.59;76.38;98335.91;5071016;28;20212;-55
2023/01/20 05:15:42;;;;;;;9.40;3.90;;;;;;;12.66;76.39;98347.03;5071129;28;20188;-56
2023/01/20 05:18:09;;;;;;;6.53;4.27;;;;;;;12.69;75.90;98341.84;5071345;28;20245;-55
2023/01/20 05:20:35;;;;;;;5.73;4.30;;;;;;;12.70;75.15;98335.78;5071082;28;20243;-55
2023/01/20 05:23:02;;;;;;;4.10;3.20;;;;;;;12.58;75.02;98338.53;5071071;28;20191;-55
2023/01/20 05:25:29;;;;;;;8.33;5.30;;;;;;;12.58;77.60;98344.50;5071118;28;20190;-55
2023/01/20 05:27:56;;;;;;;11.33;4.60;;;;;;;12.67;77.87;98339.25;5071635;28;20195;-55
2023/01/20 05:30:22;;;;;;;9.63;4.23;;;;;;;12.76;77.48;98325.44;5074598;28;20193;-55
2023/01/20 05:32:51;;;;;;;9.47;3.97;;;;;;;12.84;76.86;98347.66;5075008;28;20217;-55
2023/01/20 05:35:18;;;;;;;11.20;4.20;;;;;;;12.87;76.67;98316.72;5074622;28;20637;-55
2023/01/20 05:37:45;;;;;;;9.50;5.03;;;;;;;13.08;76.91;98318.19;5074713;28;20199;-56
2023/01/20 05:40:12;;;;;;;14.80;5.23;;;;;;;13.03;76.84;98317.38;5074636;28;20227;-55
2023/01/20 05:42:39;;;;;;;14.30;6.53;;;;;;;13.00;75.16;98309.66;5074443;28;20193;-55
2023/01/20 05:45:08;;;;;;;8.77;4.87;;;;;;;12.88;75.15;98291.78;5074130;28;20661;-55
2023/01/20 05:47:34;;;;;;;6.73;4.63;;;;;;;12.87;75.06;98283.19;5074354;28;20675;-55
2023/01/20 05:50:03;;;;;;;15.30;5.87;;;;;;;12.72;76.10;98290.25;5074436;28;20186;-55
2023/01/20 05:52:30;;;;;;;7.33;4.53;;;;;;;12.69;76.34;98282.56;5074177;28;20569;-55
2023/01/20 05:54:57;;;;;;;10.30;4.93;;;;;;;12.79;75.89;98307.34;5073205;28;20587;-55
2023/01/20 05:57:24;;;;;;;7.23;5.83;;;;;;;12.90;75.36;98306.38;5073362;28;20193;-55
2023/01/20 05:59:51;;;;;;;13.63;8.17;;;;;;;12.94;75.57;98302.84;5072685;28;20262;-56
2023/01/20 06:02:18;;;;;;;13.77;8.50;;;;;;;12.96;75.24;98308.00;5053872;28;20191;-55
2023/01/20 06:04:45;;;;;;;13.27;6.53;;;;;;;12.98;74.85;98304.53;5053902;28;20695;-55
2023/01/20 06:07:14;;;;;;;16.17;6.30;;;;;;;12.94;74.97;98291.69;5053642;28;20198;-55
2023/01/20 06:09:41;;;;;;;11.53;6.03;;;;;;;12.95;74.98;98293.41;5053734;28;20192;-55
2023/01/20 06:12:08;;;;;;;15.53;7.00;;;;;;;12.85;74.26;98266.91;5053424;28;20231;-55
2023/01/20 06:14:35;;;;;;;18.30;6.83;;;;;;;12.95;74.28;98275.34;5053698;28;20660;-54
2023/01/20 06:17:02;;;;;;;8.70;5.17;;;;;;;12.93;73.70;98270.25;5053744;28;20192;-54
2023/01/20 06:19:28;;;;;;;10.83;7.30;;;;;;;12.89;73.10;98254.81;5053543;28;20188;-55
2023/01/20 06:21:55;;;;;;;7.10;4.67;;;;;;;12.81;73.10;98248.91;5065460;28;20200;-55
2023/01/20 06:24:23;;;;;;;8.30;5.60;;;;;;;12.72;74.25;98252.44;5073600;28;20190;-55
2023/01/20 06:26:50;;;;;;;9.50;5.20;;;;;;;12.42;74.27;98217.59;5073456;28;20187;-55
2023/01/20 06:29:17;;;;;;;14.07;8.30;;;;;;;12.47;74.99;98247.63;5073389;28;20742;-54
2023/01/20 06:31:44;;;;;;;17.33;11.13;;;;;;;12.33;75.47;98258.06;5073775;28;20265;-55
2023/01/20 06:34:12;;;;;;;24.83;12.57;;;;;;;12.50;75.45;98256.13;5073339;28;20254;-55
2023/01/20 06:36:39;;;;;;;21.23;10.27;;;;;;;12.64;74.35;98267.13;5073294;28;20192;-56
2023/01/20 06:39:05;;;;;;;17.03;10.80;;;;;;;12.74;74.29;98261.03;5073385;28;20210;-54
2023/01/20 06:41:34;;;;;;;12.37;8.10;;;;;;;12.93;73.50;98277.09;5073384;28;20224;-56
2023/01/20 06:44:00;;;;;;;17.03;8.67;;;;;;;13.08;72.99;98284.66;5090230;28;20191;-56
2023/01/20 06:46:27;;;;;;;11.63;8.17;;;;;;;13.24;72.09;98300.81;5093172;28;20187;-55
2023/01/20 06:48:59;;;;;;;15.00;7.33;;;;;;;13.37;71.66;98298.03;5075203;28;20618;-55
2023/01/20 06:51:27;;;;;;;14.07;9.43;;;;;;;13.46;71.39;98299.59;5062835;28;20253;-55
2023/01/20 06:53:55;;;;;;;19.77;9.03;;;;;;;13.47;71.08;98286.69;5055617;28;20224;-56
2023/01/20 06:56:22;;;;;;;19.30;9.47;;;;;;;13.50;71.13;98281.50;5074760;28;20191;-55
2023/01/20 06:58:50;;;;;;;14.30;7.20;;;;;;;13.55;69.98;98266.78;5071895;28;20259;-56
2023/01/20 07:01:22;;;;;;;14.27;7.50;;;;;;;13.57;69.18;98270.19;5056296;28;20199;-56
2023/01/20 07:03:48;;;;;;;13.83;7.07;;;;;;;13.60;69.39;98262.41;5071956;28;20200;-56
2023/01/20 07:06:17;;;;;;;13.83;7.87;;;;;;;13.69;68.83;98260.56;5072925;28;20229;-55
2023/01/20 07:08:45;;;;;;;11.17;6.67;;;;;;;13.81;67.88;98260.38;5071888;28;20207;-55
2023/01/20 07:11:12;;;;;;;15.43;7.23;;;;;;;13.81;67.01;98225.09;5073226;28;20190;-56
2023/01/20 07:13:39;;;;;;;10.83;7.10;;;;;;;14.03;64.99;98231.59;5072682;28;20241;-55
2023/01/20 07:16:08;;;;;;;10.20;5.80;;;;;;;14.21;62.20;98235.53;5072585;28;20199;-56
2023/01/20 07:18:36;;;;;;;12.60;7.03;;;;;;;14.55;62.03;98246.13;5073122;28;20653;-55
2023/01/20 07:21:03;;;;;;;16.60;8.60;;;;;;;14.68;62.98;98221.75;5072718;28;20277;-55
2023/01/20 07:23:32;;;;;;;14.40;8.43;;;;;;;14.93;63.85;98242.75;5072784;28;20235;-56
2023/01/20 07:26:00;;;;;;;19.90;9.23;;;;;;;14.98;64.26;98240.91;5070272;28;20658;-57
2023/01/20 07:28:28;;;;;;;16.43;8.43;;;;;;;15.10;64.85;98254.47;5070394;28;20191;-56
2023/01/20 07:30:55;;;;;;;15.40;6.97;;;;;;;15.17;65.29;98255.16;5066967;28;20196;-57
2023/01/20 07:33:23;;;;;;;16.57;8.57;;;;;;;15.14;65.85;98266.44;5061835;28;20211;-56
2023/01/20 07:35:54;;;;;;;14.80;8.43;;;;;;;15.07;63.23;98287.28;5071412;28;20430;-57
2023/01/20 07:38:21;;;;;;;12.23;6.97;;;;;;;14.94;63.41;98298.78;5071674;28;20576;-57
2023/01/20 07:40:48;;;;;;;13.37;7.30;;;;;;;14.71;64.22;98305.25;5071307;28;20602;-56
2023/01/20 07:43:14;;;;;;;13.23;9.17;;;;;;;14.61;65.35;98300.31;5072157;28;20200;-55
2023/01/20 07:45:41;;;;;;;11.33;7.67;;;;;;;14.49;66.49;98308.28;5071790;28;20191;-54
2023/01/20 07:48:25;;;;;;;11.97;6.57;;;;;;;14.36;67.98;98310.25;5049088;28;20256;-55
2023/01/20 07:51:01;;;;;;;12.97;7.40;;;;;;;14.15;69.82;98318.31;5071300;28;20184;-55
2023/01/20 07:53:28;;;;;;;6.63;5.57;;;;;;;13.84;71.19;98327.44;5072337;28;20238;-55
2023/01/20 07:55:55;;;;;;;9.77;5.80;;;;;;;13.77;72.95;98338.72;5071897;28;20201;-55
2023/01/20 07:58:21;;;;;;;10.50;6.63;;;;;;;13.63;74.89;98369.03;5071879;28;20183;-55
2023/01/20 08:00:48;;;;;;;7.23;5.63;;;;;;;13.52;76.13;98405.31;5072538;28;20187;-55
2023/01/20 08:03:15;;;;;;;11.13;5.90;;;;;;;13.24;78.01;98432.34;5071347;28;20291;-54
2023/01/20 08:05:43;;;;;;;9.80;6.23;;;;;;;13.15;79.03;98482.31;5071641;28;20191;-54
2023/01/20 08:08:10;;;;;;;9.10;4.17;;;;;;;12.98;79.71;98489.31;5071753;28;20192;-54
2023/01/20 08:10:37;;;;;;;6.70;3.30;;;;;;;12.75;82.02;98488.66;5070017;28;20218;-55
2023/01/20 08:13:04;;;;;;;8.70;3.73;;;;;;;12.72;83.79;98486.97;5069485;28;20216;-54
2023/01/20 08:15:31;;;;;;;5.53;2.70;;;;;;;12.51;85.93;98507.75;5071529;28;20183;-54
2023/01/20 08:17:59;;;;;;;10.77;2.90;;;;;;;12.31;88.61;98502.72;5071535;28;20189;-54
2023/01/20 08:20:25;;;;;;;4.37;2.77;;;;;;;12.26;89.16;98506.22;5071530;28;20235;-54
2023/01/20 08:22:54;;;;;;;1.93;1.83;;;;;;;12.14;87.19;98496.81;5071047;28;20199;-55
2023/01/20 08:25:20;;;;;;;7.57;3.30;;;;;;;12.16;87.94;98502.84;5069868;28;20239;-54
2023/01/20 08:27:49;;;;;;;4.93;3.13;;;;;;;12.13;88.98;98489.13;5072685;28;20698;-55
2023/01/20 08:30:16;;;;;;;4.77;3.47;;;;;;;12.20;90.58;98491.66;5071263;28;20194;-55
2023/01/20 08:32:42;;;;;;;6.60;3.80;;;;;;;12.22;90.75;98491.66;5071293;28;20215;-55
2023/01/20 08:35:09;;;;;;;5.60;3.40;;;;;;;12.17;89.00;98486.50;5071570;28;20188;-55
2023/01/20 08:37:36;;;;;;;3.47;2.77;;;;;;;12.17;88.82;98465.91;5071508;28;20188;-55
2023/01/20 08:40:08;;;;;;;4.47;3.00;;;;;;;12.24;87.59;98459.00;5071962;28;20229;-55
2023/01/20 08:42:35;;;;;;;4.77;3.40;;;;;;;12.32;88.43;98473.56;5071300;28;20553;-54
2023/01/20 08:45:02;;;;;;;5.27;4.17;;;;;;;12.42;88.38;98487.19;5071411;28;20237;-54
2023/01/20 08:47:29;;;;;;;7.27;5.07;;;;;;;12.47;88.16;98488.00;5071336;28;20241;-55
2023/01/20 08:49:56;;;;;;;8.23;4.37;;;;;;;12.49;87.55;98495.75;5071332;28;20191;-55
2023/01/20 08:52:23;;;;;;;12.40;8.15;;;;;;;12.58;87.54;98495.69;5069883;28;20437;-55
2023/01/20 08:54:52;;;;;;;7.43;6.00;;;;;;;12.63;88.45;98494.78;5071294;28;20188;-55
2023/01/20 08:57:20;;;;;;;11.57;6.10;;;;;;;12.66;87.49;98465.56;5071874;28;20252;-55
2023/01/20 08:59:49;;;;;;;8.03;6.57;;;;;;;12.70;86.89;98439.75;5071067;28;20700;-55
2023/01/20 09:02:16;;;;;;;7.47;5.30;;;;;;;12.75;87.98;98419.06;5071006;28;20237;-55
2023/01/20 09:04:43;;;;;;;5.43;4.83;;;;;;;12.57;86.45;98408.94;5074513;28;20357;-55
2023/01/20 09:07:12;;;;;;;6.23;4.40;;;;;;;12.73;87.79;98413.94;5074813;28;20269;-55
2023/01/20 09:09:39;;;;;;;7.87;4.70;;;;;;;12.79;88.03;98394.97;5075282;28;20197;-54
2023/01/20 09:12:06;;;;;;;6.50;4.07;;;;;;;12.81;85.60;98375.19;5074997;28;20188;-55
2023/01/20 09:14:34;;;;;;;5.10;4.03;;;;;;;12.86;85.13;98363.09;5075055;28;20216;-55
2023/01/20 09:17:01;;;;;;;8.83;6.20;;;;;;;12.91;87.00;98351.03;5074792;28;20190;-55
2023/01/20 09:19:28;;;;;;;10.27;6.00;;;;;;;12.98;88.76;98332.91;5074790;28;20262;-55
2023/01/20 09:21:55;;;;;;;6.43;4.73;;;;;;;13.02;88.34;98307.91;5074490;28;20196;-55
2023/01/20 09:24:23;;;;;;;8.43;5.00;;;;;;;13.12;84.88;98296.66;5075051;28;20558;-54
2023/01/20 09:26:51;;;;;;;3.63;2.70;;;;;;;13.25;80.64;98280.13;5074741;28;20187;-54
2023/01/20 09:29:20;;;;;;;13.03;4.20;;;;;;;13.38;76.04;98239.53;5075024;28;20202;-54
2023/01/20 09:31:51;;;;;;;3.77;2.73;;;;;;;13.53;71.98;98253.06;5074442;28;20191;-54
2023/01/20 09:34:23;;;;;;;4.40;2.50;;;;;;;13.70;72.37;98233.88;5074298;28;20223;-54
2023/01/20 09:36:52;;;;;;;3.20;2.40;;;;;;;13.77;69.68;98202.78;5075036;28;20559;-55
2023/01/20 09:45:23;;;;;;;3.60;2.60;;;;;;;14.13;71.76;98184.03;5074068;28;20230;-54
2023/01/20 09:47:56;;;;;;;2.00;1.80;;;;;;;14.37;70.41;98185.31;5074555;28;20187;-54
2023/01/20 09:53:42;;;;;;;4.03;2.20;;;;;;;14.68;67.53;98198.47;5074009;28;20244;-54
2023/01/20 09:56:12;;;;;;;3.33;1.77;;;;;;;14.49;66.33;98187.66;5074321;28;20187;-54
2023/01/20 09:58:45;;;;;;;1.87;1.60;;;;;;;14.56;65.78;98196.13;5073794;28;20697;-54
2023/01/20 10:01:17;;;;;;;5.03;2.27;;;;;;;14.47;66.13;98184.28;5073677;28;20184;-54
2023/01/20 10:03:51;;;;;;;3.17;2.47;;;;;;;14.30;67.97;98181.13;5067306;28;20281;-55
2023/01/20 10:06:25;;;;;;;4.87;2.30;;;;;;;14.51;66.38;98191.06;5055177;28;20210;-55
2023/01/20 10:08:56;;;;;;;2.87;2.07;;;;;;;14.69;65.50;98162.25;5053503;28;20195;-55
2023/01/20 10:11:26;;;;;;;3.90;2.60;;;;;;;14.72;62.19;98141.47;5053904;28;20561;-55
2023/01/20 10:13:59;;;;;;;3.47;2.00;;;;;;;14.65;62.65;98108.91;5052897;28;20591;-55
2023/01/20 10:16:33;;;;;;;3.43;1.93;;;;;;;14.69;63.14;98141.59;5053706;28;20241;-55
2023/01/20 10:19:10;;;;;;;3.63;1.90;;;;;;;14.73;65.46;98169.06;5053395;28;20192;-55
2023/01/20 10:21:41;;;;;;;6.23;2.40;;;;;;;14.61;69.64;98165.91;5053246;28;20188;-54
2023/01/20 10:24:13;;;;;;;4.73;2.10;;;;;;;14.07;73.60;98149.72;5053246;28;20204;-55
2023/01/20 10:26:46;;;;;;;2.30;2.10;;;;;;;13.86;75.82;98137.22;5053024;28;20214;-55
2023/01/20 10:29:20;;;;;;;4.57;1.90;;;;;;;13.75;77.39;98160.66;5055750;28;20548;-55
2023/01/20 10:31:53;;;;;;;4.00;2.83;;;;;;;13.73;79.21;98172.75;5068396;28;20663;-54
2023/01/20 10:34:22;;;;;;;3.60;2.60;;;;;;;13.67;78.51;98178.00;5058161;28;20223;-54
2023/01/20 10:36:55;;;;;;;3.40;2.60;;;;;;;13.64;76.71;98182.34;5057882;28;20195;-55
2023/01/20 10:39:30;;;;;;;4.00;2.17;;;;;;;13.80;75.71;98160.56;5059207;28;20625;-55
2023/01/20 10:42:03;;;;;;;2.83;2.30;;;;;;;13.73;74.33;98152.09;5063436;28;20243;-55
2023/01/20 10:44:33;;;;;;;4.10;2.27;;;;;;;13.92;73.88;98158.63;5073201;28;20281;-55
2023/01/20 10:47:15;;;;;;;5.60;2.67;;;;;;;13.97;73.07;98161.09;5073040;28;20191;-55
2023/01/20 10:50:09;;;;;;;2.50;1.83;;;;;;;14.08;72.08;98146.25;5073244;28;20192;-55
2023/01/20 10:52:50;;;;;;;2.87;2.30;;;;;;;14.10;73.38;98137.59;5073473;28;20198;-54
2023/01/20 10:55:26;;;;;;;5.13;2.37;;;;;;;14.31;71.69;98156.97;5072562;28;20214;-54
2023/01/20 10:57:56;;;;;;;1.80;1.57;;;;;;;14.42;69.23;98149.88;5066513;28;20195;-55
2023/01/20 11:00:26;;;;;;;3.63;1.70;;;;;;;14.63;68.23;98161.53;5056743;28;20283;-55
2023/01/20 11:02:54;;;;;;;5.23;1.90;;;;;;;14.65;67.88;98139.94;5052627;28;20206;-55
2023/01/20 11:05:26;;;;;;;3.00;1.47;;;;;;;14.37;68.34;98125.03;5060958;28;20202;-55
2023/01/20 11:07:54;;;;;;;2.47;1.33;;;;;;;14.23;69.27;98116.72;5072847;28;20188;-55
2023/01/20 11:10:23;;;;;;;2.97;1.63;;;;;;;14.10;71.17;98119.53;5068283;28;20190;-60
2023/01/20 11:12:53;;;;;;;3.27;1.80;;;;;;;13.99;72.39;98136.09;5061739;28;20717;-56
2023/01/20 11:15:22;;;;;;;8.00;2.43;;;;;;;13.86;72.14;98122.59;5051801;28;20220;-56
2023/01/20 11:18:19;;;;;;;6.20;2.00;;;;;;;13.88;72.13;98110.50;5052062;28;20196;-55
2023/01/20 11:20:50;;;;;;;1.40;1.30;;;;;;;14.10;71.81;98121.25;5052224;28;20572;-54
2023/01/20 11:23:22;;;;;;;3.17;1.73;;;;;;;14.23;73.74;98109.78;5052192;28;20285;-55
2023/01/20 11:25:56;;;;;;;5.53;2.30;;;;;;;14.14;76.40;98107.41;5051189;28;20279;-55
2023/01/20 11:28:24;;;;;;;4.20;2.23;;;;;;;14.29;76.38;98121.72;5052290;28;20290;-55
2023/01/20 11:30:52;;;;;;;6.57;2.10;;;;;;;14.28;73.71;98122.63;5061763;28;20194;-55
2023/01/20 11:33:21;;;;;;;5.30;1.90;;;;;;;14.30;70.11;98098.47;5072161;28;20203;-55
2023/01/20 11:36:00;;;;;;;4.53;2.43;;;;;;;14.51;66.57;98087.69;5072516;28;20195;-55
2023/01/20 11:38:29;;;;;;;9.43;2.30;;;;;;;14.57;65.28;98089.28;5071575;28;20187;-55
2023/01/20 11:40:57;;;;;;;2.03;1.70;;;;;;;14.64;65.02;98089.09;5072148;28;20234;-55
2023/01/20 11:43:31;;;;;;;2.63;2.07;;;;;;;14.58;63.71;98058.25;5086744;28;20674;-54
2023/01/20 11:46:22;;;;;;;5.87;2.40;;;;;;;14.78;63.36;98070.69;5092062;28;20193;-55
2023/01/20 11:48:50;;;;;;;3.70;1.83;;;;;;;14.81;64.00;98070.63;5092217;28;20189;-55
2023/01/20 11:51:24;;;;;;;6.20;2.47;;;;;;;14.74;65.12;98066.50;5092246;28;20239;-55